sensor_id;sensor_type;location;lat;lon;timestamp;pressure;altitude;pressure_sealevel;temperature;humidity
45253;BME280;63171;50.520;30.486;2023-03-24T00:00:22;99515.63;;;13.69;45.75
45253;BME280;63171;50.520;30.486;2023-03-24T00:01:13;99518.81;;;13.72;45.84
45253;BME280;63171;50.520;30.486;2023-03-24T00:02:04;99516.69;;;13.66;45.80
45253;BME280;63171;50.520;30.486;2023-03-24T00:02:55;99512.84;;;13.70;45.91
45253;BME280;63171;50.520;30.486;2023-03-24T00:03:49;99508.81;;;13.66;45.79
45253;BME280;63171;50.520;30.486;2023-03-24T00:04:40;99509.50;;;13.68;45.77
45253;BME280;63171;50.520;30.486;2023-03-24T00:05:31;99513.53;;;13.83;45.92
45253;BME280;63171;50.520;30.486;2023-03-24T00:06:23;99510.31;;;13.80;46.16
45253;BME280;63171;50.520;30.486;2023-03-24T00:07:15;99509.13;;;13.73;45.86
45253;BME280;63171;50.520;30.486;2023-03-24T00:08:05;99516.31;;;13.71;45.72
45253;BME280;63171;50.520;30.486;2023-03-24T00:08:54;99509.38;;;13.70;45.78
45253;BME280;63171;50.520;30.486;2023-03-24T00:09:45;99510.34;;;13.69;45.79
45253;BME280;63171;50.520;30.486;2023-03-24T00:10:35;99508.78;;;13.77;45.81
45253;BME280;63171;50.520;30.486;2023-03-24T00:11:26;99510.44;;;13.78;45.78
45253;BME280;63171;50.520;30.486;2023-03-24T00:12:16;99503.00;;;13.83;45.92
45253;BME280;63171;50.520;30.486;2023-03-24T00:13:07;99507.00;;;13.67;45.58
45253;BME280;63171;50.520;30.486;2023-03-24T00:13:57;99515.63;;;13.69;45.87
45253;BME280;63171;50.520;30.486;2023-03-24T00:14:48;99508.69;;;13.56;45.75
45253;BME280;63171;50.520;30.486;2023-03-24T00:15:37;99516.00;;;13.64;45.66
45253;BME280;63171;50.520;30.486;2023-03-24T00:16:28;99505.34;;;13.66;45.68
45253;BME280;63171;50.520;30.486;2023-03-24T00:17:18;99505.59;;;13.63;45.82
45253;BME280;63171;50.520;30.486;2023-03-24T00:18:13;99505.59;;;13.63;45.92
45253;BME280;63171;50.520;30.486;2023-03-24T00:19:03;99504.03;;;13.60;45.61
45253;BME280;63171;50.520;30.486;2023-03-24T00:19:54;99497.94;;;13.59;45.75
45253;BME280;63171;50.520;30.486;2023-03-24T00:20:44;99502.88;;;13.42;45.77
45253;BME280;63171;50.520;30.486;2023-03-24T00:21:36;99509.34;;;13.49;45.98
45253;BME280;63171;50.520;30.486;2023-03-24T00:22:26;99503.06;;;13.61;46.02
45253;BME280;63171;50.520;30.486;2023-03-24T00:23:16;99505.69;;;13.61;45.99
45253;BME280;63171;50.520;30.486;2023-03-24T00:24:07;99508.31;;;13.61;45.87
45253;BME280;63171;50.520;30.486;2023-03-24T00:24:58;99504.66;;;13.52;45.92
45253;BME280;63171;50.520;30.486;2023-03-24T00:25:57;99505.09;;;13.57;46.02
45253;BME280;63171;50.520;30.486;2023-03-24T00:26:50;99500.34;;;13.63;46.12
45253;BME280;63171;50.520;30.486;2023-03-24T00:27:40;99504.03;;;13.60;45.72
45253;BME280;63171;50.520;30.486;2023-03-24T00:28:34;99500.09;;;13.54;46.03
45253;BME280;63171;50.520;30.486;2023-03-24T00:29:25;99500.69;;;13.47;46.02
45253;BME280;63171;50.520;30.486;2023-03-24T00:30:19;99500.69;;;13.47;45.97
45253;BME280;63171;50.520;30.486;2023-03-24T00:31:09;99496.88;;;13.51;46.14
45253;BME280;63171;50.520;30.486;2023-03-24T00:31:59;99495.53;;;13.56;46.05
45253;BME280;63171;50.520;30.486;2023-03-24T00:32:50;99486.44;;;13.60;46.17
45253;BME280;63171;50.520;30.486;2023-03-24T00:33:41;99490.66;;;13.52;45.82
45253;BME280;63171;50.520;30.486;2023-03-24T00:34:32;99497.16;;;13.37;46.07
45253;BME280;63171;50.520;30.486;2023-03-24T00:35:27;99491.78;;;13.27;46.05
45253;BME280;63171;50.520;30.486;2023-03-24T00:36:18;99501.59;;;13.36;46.10
45253;BME280;63171;50.520;30.486;2023-03-24T00:37:11;99497.63;;;13.42;46.24
45253;BME280;63171;50.520;30.486;2023-03-24T00:38:01;99489.84;;;13.40;46.14
45253;BME280;63171;50.520;30.486;2023-03-24T00:38:52;99489.97;;;13.39;46.14
45253;BME280;63171;50.520;30.486;2023-03-24T00:39:43;99487.94;;;13.42;46.17
45253;BME280;63171;50.520;30.486;2023-03-24T00:40:35;99482.56;;;13.32;46.04
45253;BME280;63171;50.520;30.486;2023-03-24T00:41:26;99482.09;;;13.39;46.15
45253;BME280;63171;50.520;30.486;2023-03-24T00:42:17;99489.13;;;13.38;46.44
45253;BME280;63171;50.520;30.486;2023-03-24T00:43:07;99483.16;;;13.36;46.48
45253;BME280;63171;50.520;30.486;2023-03-24T00:43:59;99483.63;;;13.30;46.30
45253;BME280;63171;50.520;30.486;2023-03-24T00:44:52;99475.41;;;13.23;46.33
45253;BME280;63171;50.520;30.486;2023-03-24T00:45:46;99481.38;;;13.25;46.45
45253;BME280;63171;50.520;30.486;2023-03-24T00:46:37;99483.63;;;13.30;46.44
45253;BME280;63171;50.520;30.486;2023-03-24T00:47:27;99479.72;;;13.36;46.56
45253;BME280;63171;50.520;30.486;2023-03-24T00:48:18;99483.97;;;13.48;46.62
45253;BME280;63171;50.520;30.486;2023-03-24T00:49:09;99476.44;;;13.43;46.55
45253;BME280;63171;50.520;30.486;2023-03-24T00:50:00;99477.28;;;13.32;46.55
45253;BME280;63171;50.520;30.486;2023-03-24T00:50:50;99470.72;;;13.38;46.47
45253;BME280;63171;50.520;30.486;2023-03-24T00:51:41;99474.22;;;13.27;46.42
45253;BME280;63171;50.520;30.486;2023-03-24T00:52:33;99484.25;;;13.22;46.54
45253;BME280;63171;50.520;30.486;2023-03-24T00:53:24;99472.75;;;13.35;46.63
45253;BME280;63171;50.520;30.486;2023-03-24T00:54:17;99475.38;;;13.35;46.77
45253;BME280;63171;50.520;30.486;2023-03-24T00:55:14;99484.56;;;13.18;46.54
45253;BME280;63171;50.520;30.486;2023-03-24T00:56:04;99477.44;;;13.20;46.50
45253;BME280;63171;50.520;30.486;2023-03-24T00:56:55;99474.47;;;13.24;46.75
45253;BME280;63171;50.520;30.486;2023-03-24T00:57:46;99484.72;;;13.27;46.80
45253;BME280;63171;50.520;30.486;2023-03-24T00:58:38;99485.19;;;13.32;46.68
45253;BME280;63171;50.520;30.486;2023-03-24T00:59:28;99487.09;;;13.30;46.82
45253;BME280;63171;50.520;30.486;2023-03-24T01:00:20;99474.78;;;13.31;46.78
45253;BME280;63171;50.520;30.486;2023-03-24T01:03:00;99479.81;;;13.34;46.86
45253;BME280;63171;50.520;30.486;2023-03-24T01:03:51;99488.53;;;13.35;46.89
45253;BME280;63171;50.520;30.486;2023-03-24T01:04:42;99479.56;;;13.37;47.03
45253;BME280;63171;50.520;30.486;2023-03-24T01:05:35;99479.94;;;13.32;46.96
45253;BME280;63171;50.520;30.486;2023-03-24T01:06:26;99476.59;;;13.30;46.85
45253;BME280;63171;50.520;30.486;2023-03-24T01:07:16;99471.31;;;13.30;46.97
45253;BME280;63171;50.520;30.486;2023-03-24T01:08:08;99475.50;;;13.22;46.99
45253;BME280;63171;50.520;30.486;2023-03-24T01:08:59;99479.59;;;13.26;47.04
45253;BME280;63171;50.520;30.486;2023-03-24T01:09:51;99484.13;;;13.24;47.12
45253;BME280;63171;50.520;30.486;2023-03-24T01:10:47;99476.25;;;13.24;47.06
45253;BME280;63171;50.520;30.486;2023-03-24T01:11:42;99472.75;;;13.12;46.98
45253;BME280;63171;50.520;30.486;2023-03-24T01:12:34;99482.91;;;13.17;47.21
45253;BME280;63171;50.520;30.486;2023-03-24T01:13:28;99477.66;;;13.17;47.18
45253;BME280;63171;50.520;30.486;2023-03-24T01:14:19;99473.84;;;13.10;47.13
45253;BME280;63171;50.520;30.486;2023-03-24T01:15:16;99475.84;;;13.17;47.41
45253;BME280;63171;50.520;30.486;2023-03-24T01:16:07;99474.47;;;13.24;47.36
45253;BME280;63171;50.520;30.486;2023-03-24T01:16:58;99471.44;;;13.18;47.21
45253;BME280;63171;50.520;30.486;2023-03-24T01:17:49;99472.38;;;13.17;47.38
45253;BME280;63171;50.520;30.486;2023-03-24T01:18:39;99470.97;;;13.13;47.30
45253;BME280;63171;50.520;30.486;2023-03-24T01:19:30;99474.19;;;13.05;47.30
45253;BME280;63171;50.520;30.486;2023-03-24T01:20:22;99473.72;;;13.11;47.33
45253;BME280;63171;50.520;30.486;2023-03-24T01:21:13;99474.78;;;13.09;47.34
45253;BME280;63171;50.520;30.486;2023-03-24T01:22:03;99465.13;;;12.98;47.40
45253;BME280;63171;50.520;30.486;2023-03-24T01:22:53;99473.94;;;13.08;47.56
45253;BME280;63171;50.520;30.486;2023-03-24T01:23:44;99481.38;;;13.14;47.51
45253;BME280;63171;50.520;30.486;2023-03-24T01:24:36;99473.34;;;13.05;47.68
45253;BME280;63171;50.520;30.486;2023-03-24T01:25:25;99474.78;;;13.09;47.63
45253;BME280;63171;50.520;30.486;2023-03-24T01:26:17;99473.59;;;13.13;47.82
45253;BME280;63171;50.520;30.486;2023-03-24T01:27:07;99478.47;;;13.17;47.80
45253;BME280;63171;50.520;30.486;2023-03-24T01:27:58;99466.28;;;13.16;47.69
45253;BME280;63171;50.520;30.486;2023-03-24T01:28:47;99468.59;;;12.98;47.58
45253;BME280;63171;50.520;30.486;2023-03-24T01:29:38;99477.91;;;12.91;47.69
45253;BME280;63171;50.520;30.486;2023-03-24T01:30:28;99471.09;;;13.00;47.66
45253;BME280;63171;50.520;30.486;2023-03-24T01:31:18;99470.97;;;13.01;47.94
45253;BME280;63171;50.520;30.486;2023-03-24T01:32:09;99470.97;;;13.13;48.04
45253;BME280;63171;50.520;30.486;2023-03-24T01:32:59;99464.25;;;13.09;47.86
45253;BME280;63171;50.520;30.486;2023-03-24T01:33:49;99469.19;;;13.02;47.87
45253;BME280;63171;50.520;30.486;2023-03-24T01:34:39;99457.84;;;13.01;47.90
45253;BME280;63171;50.520;30.486;2023-03-24T01:35:30;99463.91;;;13.02;47.84
45253;BME280;63171;50.520;30.486;2023-03-24T01:36:20;99461.16;;;13.03;47.89
45253;BME280;63171;50.520;30.486;2023-03-24T01:37:10;99463.44;;;13.08;48.08
45253;BME280;63171;50.520;30.486;2023-03-24T01:38:04;99470.38;;;12.98;47.90
45253;BME280;63171;50.520;30.486;2023-03-24T01:38:57;99466.44;;;13.03;48.06
45253;BME280;63171;50.520;30.486;2023-03-24T01:39:49;99468.09;;;13.05;47.90
45253;BME280;63171;50.520;30.486;2023-03-24T01:40:43;99456.75;;;13.04;48.05
45253;BME280;63171;50.520;30.486;2023-03-24T01:41:35;99472.53;;;13.04;48.23
45253;BME280;63171;50.520;30.486;2023-03-24T01:42:28;99473.47;;;13.03;48.13
45253;BME280;63171;50.520;30.486;2023-03-24T01:43:20;99464.41;;;12.96;48.15
45253;BME280;63171;50.520;30.486;2023-03-24T01:44:26;99470.63;;;12.84;48.09
45253;BME280;63171;50.520;30.486;2023-03-24T01:46:43;99470.97;;;13.13;48.38
45253;BME280;63171;50.520;30.486;2023-03-24T01:47:33;99471.69;;;13.03;48.29
45253;BME280;63171;50.520;30.486;2023-03-24T01:48:27;99466.06;;;13.08;48.31
45253;BME280;63171;50.520;30.486;2023-03-24T01:49:18;99470.00;;;12.91;48.18
45253;BME280;63171;50.520;30.486;2023-03-24T01:50:09;99473.97;;;12.97;48.30
45253;BME280;63171;50.520;30.486;2023-03-24T01:51:03;99473.34;;;12.93;48.16
45253;BME280;63171;50.520;30.486;2023-03-24T01:51:57;99466.78;;;12.88;48.20
45253;BME280;63171;50.520;30.486;2023-03-24T01:52:49;99472.75;;;12.79;48.26
45253;BME280;63171;50.520;30.486;2023-03-24T01:53:43;99479.44;;;12.94;48.28
45253;BME280;63171;50.520;30.486;2023-03-24T01:54:43;99474.22;;;12.83;48.35
45253;BME280;63171;50.520;30.486;2023-03-24T01:55:37;99488.28;;;12.93;48.47
45253;BME280;63171;50.520;30.486;2023-03-24T01:56:30;99481.72;;;12.76;48.36
45253;BME280;63171;50.520;30.486;2023-03-24T01:57:24;99482.69;;;12.86;48.53
45253;BME280;63171;50.520;30.486;2023-03-24T01:58:16;99480.66;;;12.90;48.47
45253;BME280;63171;50.520;30.486;2023-03-24T01:59:19;99474.41;;;12.68;48.55
45253;BME280;63171;50.520;30.486;2023-03-24T02:00:35;99482.09;;;12.71;48.47
45253;BME280;63171;50.520;30.486;2023-03-24T02:01:46;99481.03;;;12.85;48.53
45253;BME280;63171;50.520;30.486;2023-03-24T02:02:53;99475.63;;;12.87;48.66
45253;BME280;63171;50.520;30.486;2023-03-24T02:03:48;99475.88;;;12.84;48.77
45253;BME280;63171;50.520;30.486;2023-03-24T02:04:42;99479.09;;;12.87;48.61
45253;BME280;63171;50.520;30.486;2023-03-24T02:05:36;99486.88;;;12.89;48.65
45253;BME280;63171;50.520;30.486;2023-03-24T02:06:26;99482.94;;;12.83;48.68
45253;BME280;63171;50.520;30.486;2023-03-24T02:07:27;99491.63;;;13.06;48.69
45253;BME280;63171;50.520;30.486;2023-03-24T02:08:23;99486.97;;;12.76;48.55
45253;BME280;63171;50.520;30.486;2023-03-24T02:09:16;99489.25;;;12.92;48.71
45253;BME280;63171;50.520;30.486;2023-03-24T02:10:13;99482.81;;;12.85;48.70
45253;BME280;63171;50.520;30.486;2023-03-24T02:11:04;99481.97;;;12.84;48.81
45253;BME280;63171;50.520;30.486;2023-03-24T02:12:03;99483.66;;;12.85;48.69
45253;BME280;63171;50.520;30.486;2023-03-24T02:12:56;99486.38;;;12.95;48.82
45253;BME280;63171;50.520;30.486;2023-03-24T02:13:45;99487.09;;;12.86;48.69
45253;BME280;63171;50.520;30.486;2023-03-24T02:14:36;99488.53;;;12.90;48.88
45253;BME280;63171;50.520;30.486;2023-03-24T02:15:28;99489.75;;;12.97;48.83
45253;BME280;63171;50.520;30.486;2023-03-24T02:16:38;99481.72;;;12.87;48.96
45253;BME280;63171;50.520;30.486;2023-03-24T02:17:57;99492.59;;;12.94;48.79
45253;BME280;63171;50.520;30.486;2023-03-24T02:18:59;99486.53;;;12.82;48.62
45253;BME280;63171;50.520;30.486;2023-03-24T02:21:44;99491.75;;;12.93;48.86
45253;BME280;63171;50.520;30.486;2023-03-24T02:23:27;99488.66;;;12.88;49.05
45253;BME280;63171;50.520;30.486;2023-03-24T02:24:54;99483.66;;;12.85;49.06
45253;BME280;63171;50.520;30.486;2023-03-24T02:27:37;99477.91;;;12.69;49.05
45253;BME280;63171;50.520;30.486;2023-03-24T02:28:40;99480.63;;;12.79;49.02
45253;BME280;63171;50.520;30.486;2023-03-24T02:32:43;99479.56;;;12.81;49.31
45253;BME280;63171;50.520;30.486;2023-03-24T02:34:10;99481.25;;;12.82;49.17
45253;BME280;63171;50.520;30.486;2023-03-24T02:36:56;99483.97;;;12.81;49.25
45253;BME280;63171;50.520;30.486;2023-03-24T02:38:33;99482.44;;;12.78;49.33
45253;BME280;63171;50.520;30.486;2023-03-24T02:40:56;99483.88;;;12.82;49.41
45253;BME280;63171;50.520;30.486;2023-03-24T02:41:53;99487.56;;;12.91;49.47
45253;BME280;63171;50.520;30.486;2023-03-24T02:42:55;99499.31;;;12.98;49.63
45253;BME280;63171;50.520;30.486;2023-03-24T02:43:55;99494.16;;;12.85;49.40
45253;BME280;63171;50.520;30.486;2023-03-24T02:44:55;99499.06;;;13.01;49.56
45253;BME280;63171;50.520;30.486;2023-03-24T02:46:06;99497.50;;;12.87;49.46
45253;BME280;63171;50.520;30.486;2023-03-24T02:47:04;99499.41;;;12.85;49.53
45253;BME280;63171;50.520;30.486;2023-03-24T02:48:09;99492.97;;;12.89;49.50
45253;BME280;63171;50.520;30.486;2023-03-24T02:49:18;99495.94;;;12.73;49.64
45253;BME280;63171;50.520;30.486;2023-03-24T02:50:17;99498.69;;;12.83;49.53
45253;BME280;63171;50.520;30.486;2023-03-24T02:51:16;99499.66;;;12.82;49.65
45253;BME280;63171;50.520;30.486;2023-03-24T02:52:16;99496.19;;;12.93;49.74
45253;BME280;63171;50.520;30.486;2023-03-24T02:53:11;99497.84;;;12.94;49.63
45253;BME280;63171;50.520;30.486;2023-03-24T02:54:28;99497.75;;;12.95;49.96
45253;BME280;63171;50.520;30.486;2023-03-24T02:55:23;99490.06;;;12.81;49.78
45253;BME280;63171;50.520;30.486;2023-03-24T02:56:22;99496.16;;;12.82;49.92
45253;BME280;63171;50.520;30.486;2023-03-24T02:57:29;99498.34;;;12.88;49.83
45253;BME280;63171;50.520;30.486;2023-03-24T02:58:57;99495.00;;;12.86;49.92
45253;BME280;63171;50.520;30.486;2023-03-24T02:59:52;99493.91;;;12.88;49.95
45253;BME280;63171;50.520;30.486;2023-03-24T03:01:10;99492.69;;;12.81;49.86
45253;BME280;63171;50.520;30.486;2023-03-24T03:02:07;99497.03;;;12.82;49.95
45253;BME280;63171;50.520;30.486;2023-03-24T03:03:11;99496.06;;;12.94;50.04
45253;BME280;63171;50.520;30.486;2023-03-24T03:04:08;99495.22;;;12.94;50.11
45253;BME280;63171;50.520;30.486;2023-03-24T03:05:02;99497.25;;;13.01;50.29
45253;BME280;63171;50.520;30.486;2023-03-24T03:05:55;99491.16;;;13.01;50.34
45253;BME280;63171;50.520;30.486;2023-03-24T03:06:50;99491.41;;;12.87;50.00
45253;BME280;63171;50.520;30.486;2023-03-24T03:07:41;99506.34;;;12.86;50.33
45253;BME280;63171;50.520;30.486;2023-03-24T03:08:35;99508.00;;;12.87;50.29
45253;BME280;63171;50.520;30.486;2023-03-24T03:09:27;99501.22;;;12.96;50.28
45253;BME280;63171;50.520;30.486;2023-03-24T03:10:23;99511.25;;;13.02;50.37
45253;BME280;63171;50.520;30.486;2023-03-24T03:11:15;99501.34;;;12.83;50.28
45253;BME280;63171;50.520;30.486;2023-03-24T03:12:09;99503.56;;;12.77;50.36
45253;BME280;63171;50.520;30.486;2023-03-24T03:13:04;99499.28;;;12.87;50.44
45253;BME280;63171;50.520;30.486;2023-03-24T03:14:01;99506.47;;;12.85;50.42
45253;BME280;63171;50.520;30.486;2023-03-24T03:14:55;99507.28;;;12.74;50.36
45253;BME280;63171;50.520;30.486;2023-03-24T03:15:51;99503.13;;;12.83;50.43
45253;BME280;63171;50.520;30.486;2023-03-24T03:16:45;99500.97;;;12.88;50.56
45253;BME280;63171;50.520;30.486;2023-03-24T03:17:40;99507.31;;;12.96;50.71
45253;BME280;63171;50.520;30.486;2023-03-24T03:18:34;99503.09;;;12.71;50.37
45253;BME280;63171;50.520;30.486;2023-03-24T03:19:30;99510.97;;;12.60;50.60
45253;BME280;63171;50.520;30.486;2023-03-24T03:20:23;99508.13;;;12.75;50.73
45253;BME280;63171;50.520;30.486;2023-03-24T03:21:15;99503.97;;;12.83;50.83
45253;BME280;63171;50.520;30.486;2023-03-24T03:22:10;99499.41;;;12.85;50.74
45253;BME280;63171;50.520;30.486;2023-03-24T03:23:06;99509.44;;;12.91;50.79
45253;BME280;63171;50.520;30.486;2023-03-24T03:24:01;99502.88;;;12.97;50.88
45253;BME280;63171;50.520;30.486;2023-03-24T03:24:54;99513.03;;;12.90;50.79
45253;BME280;63171;50.520;30.486;2023-03-24T03:25:47;99509.31;;;12.82;50.83
45253;BME280;63171;50.520;30.486;2023-03-24T03:26:41;99521.41;;;12.84;50.83
45253;BME280;63171;50.520;30.486;2023-03-24T03:27:35;99524.72;;;12.75;50.96
45253;BME280;63171;50.520;30.486;2023-03-24T03:28:28;99520.56;;;12.84;51.02
45253;BME280;63171;50.520;30.486;2023-03-24T03:29:21;99517.31;;;12.91;51.08
45253;BME280;63171;50.520;30.486;2023-03-24T03:30:15;99506.81;;;12.91;51.10
45253;BME280;63171;50.520;30.486;2023-03-24T03:31:08;99515.75;;;12.78;50.99
45253;BME280;63171;50.520;30.486;2023-03-24T03:32:04;99499.03;;;12.79;51.14
45253;BME280;63171;50.520;30.486;2023-03-24T03:33:02;99502.88;;;12.86;51.24
45253;BME280;63171;50.520;30.486;2023-03-24T03:33:58;99503.84;;;12.85;51.18
45253;BME280;63171;50.520;30.486;2023-03-24T03:34:55;99511.59;;;12.75;51.30
45253;BME280;63171;50.520;30.486;2023-03-24T03:35:51;99516.25;;;12.83;51.27
45253;BME280;63171;50.520;30.486;2023-03-24T03:36:47;99507.88;;;12.78;51.34
45253;BME280;63171;50.520;30.486;2023-03-24T03:37:44;99508.97;;;12.86;51.35
45253;BME280;63171;50.520;30.486;2023-03-24T03:38:44;99503.00;;;12.95;51.65
45253;BME280;63171;50.520;30.486;2023-03-24T03:39:40;99511.00;;;13.05;51.69
45253;BME280;63171;50.520;30.486;2023-03-24T03:40:38;99509.06;;;13.07;51.41
45253;BME280;63171;50.520;30.486;2023-03-24T03:41:39;99516.25;;;12.94;51.44
45253;BME280;63171;50.520;30.486;2023-03-24T03:42:28;99514.38;;;12.96;51.57
45253;BME280;63171;50.520;30.486;2023-03-24T03:43:21;99513.41;;;12.97;51.58
45253;BME280;63171;50.520;30.486;2023-03-24T03:44:11;99514.38;;;12.96;51.62
45253;BME280;63171;50.520;30.486;2023-03-24T03:45:03;99517.09;;;12.83;51.42
45253;BME280;63171;50.520;30.486;2023-03-24T03:45:52;99522.22;;;12.73;51.57
45253;BME280;63171;50.520;30.486;2023-03-24T03:46:47;99518.25;;;12.68;51.48
45253;BME280;63171;50.520;30.486;2023-03-24T03:47:44;99522.22;;;12.73;51.61
45253;BME280;63171;50.520;30.486;2023-03-24T03:48:37;99522.09;;;12.75;51.85
45253;BME280;63171;50.520;30.486;2023-03-24T03:49:27;99518.88;;;12.71;51.83
45253;BME280;63171;50.520;30.486;2023-03-24T03:50:18;99524.47;;;12.78;51.94
45253;BME280;63171;50.520;30.486;2023-03-24T03:51:08;99530.31;;;12.82;51.97
45253;BME280;63171;50.520;30.486;2023-03-24T03:51:59;99519.72;;;12.83;52.03
45253;BME280;63171;50.520;30.486;2023-03-24T03:52:49;99524.84;;;12.85;52.03
45253;BME280;63171;50.520;30.486;2023-03-24T03:53:45;99519.38;;;12.99;52.35
45253;BME280;63171;50.520;30.486;2023-03-24T03:54:36;99524.84;;;12.85;52.00
45253;BME280;63171;50.520;30.486;2023-03-24T03:55:28;99523.06;;;12.85;52.27
45253;BME280;63171;50.520;30.486;2023-03-24T03:56:21;99528.56;;;12.93;52.25
45253;BME280;63171;50.520;30.486;2023-03-24T03:57:25;99524.16;;;12.83;52.30
45253;BME280;63171;50.520;30.486;2023-03-24T03:58:32;99529.63;;;12.80;52.32
45253;BME280;63171;50.520;30.486;2023-03-24T03:59:26;99527.09;;;12.78;52.41
45253;BME280;63171;50.520;30.486;2023-03-24T04:00:17;99532.22;;;12.68;52.41
45253;BME280;63171;50.520;30.486;2023-03-24T04:01:28;99529.84;;;12.77;52.62
45253;BME280;63171;50.520;30.486;2023-03-24T04:02:43;99533.44;;;12.76;52.65
45253;BME280;63171;50.520;30.486;2023-03-24T04:03:51;99531.28;;;12.81;52.91
45253;BME280;63171;50.520;30.486;2023-03-24T04:05:12;99527.72;;;12.93;52.98
45253;BME280;63171;50.520;30.486;2023-03-24T04:06:35;99537.63;;;12.89;53.21
45253;BME280;63171;50.520;30.486;2023-03-24T04:07:33;99535.97;;;12.88;53.00
45253;BME280;63171;50.520;30.486;2023-03-24T04:08:45;99530.25;;;12.83;53.27
45253;BME280;63171;50.520;30.486;2023-03-24T04:09:55;99528.44;;;12.84;53.12
45253;BME280;63171;50.520;30.486;2023-03-24T04:11:03;99534.88;;;12.80;53.36
45253;BME280;63171;50.520;30.486;2023-03-24T04:12:14;99530.84;;;12.87;53.40
45253;BME280;63171;50.520;30.486;2023-03-24T04:13:35;99526.75;;;12.94;53.65
45253;BME280;63171;50.520;30.486;2023-03-24T04:14:40;99542.53;;;12.83;53.73
45253;BME280;63171;50.520;30.486;2023-03-24T04:15:53;99532.97;;;12.70;53.48
45253;BME280;63171;50.520;30.486;2023-03-24T04:17:10;99539.66;;;12.86;54.02
45253;BME280;63171;50.520;30.486;2023-03-24T04:18:30;99546.22;;;12.69;53.82
45253;BME280;63171;50.520;30.486;2023-03-24T04:19:40;99546.78;;;12.61;54.04
45253;BME280;63171;50.520;30.486;2023-03-24T04:20:39;99546.22;;;12.69;54.12
45253;BME280;63171;50.520;30.486;2023-03-24T04:21:51;99544.22;;;12.84;54.30
45253;BME280;63171;50.520;30.486;2023-03-24T04:22:58;99553.53;;;12.99;54.49
45253;BME280;63171;50.520;30.486;2023-03-24T04:23:56;99545.06;;;12.95;54.20
45253;BME280;63171;50.520;30.486;2023-03-24T04:24:53;99551.63;;;12.90;54.49
45253;BME280;63171;50.520;30.486;2023-03-24T04:25:52;99555.66;;;12.94;54.48
45253;BME280;63171;50.520;30.486;2023-03-24T04:26:53;99553.06;;;12.83;54.35
45253;BME280;63171;50.520;30.486;2023-03-24T04:27:57;99552.22;;;12.93;54.71
45253;BME280;63171;50.520;30.486;2023-03-24T04:28:57;99551.13;;;12.85;54.76
45253;BME280;63171;50.520;30.486;2023-03-24T04:29:54;99560.00;;;13.06;54.75
45253;BME280;63171;50.520;30.486;2023-03-24T04:30:58;99558.69;;;13.12;54.92
45253;BME280;63171;50.520;30.486;2023-03-24T04:31:57;99566.22;;;13.16;54.97
45253;BME280;63171;50.520;30.486;2023-03-24T04:32:54;99567.16;;;13.04;54.76
45253;BME280;63171;50.520;30.486;2023-03-24T04:33:51;99563.59;;;13.16;55.05
45253;BME280;63171;50.520;30.486;2023-03-24T04:34:45;99566.44;;;13.02;54.79
45253;BME280;63171;50.520;30.486;2023-03-24T04:36:00;99561.69;;;13.18;55.02
45253;BME280;63171;50.520;30.486;2023-03-24T04:37:05;99564.16;;;13.09;54.87
45253;BME280;63171;50.520;30.486;2023-03-24T04:38:15;99563.47;;;13.18;55.06
45253;BME280;63171;50.520;30.486;2023-03-24T04:39:17;99567.66;;;13.09;55.01
45253;BME280;63171;50.520;30.486;2023-03-24T04:40:15;99570.88;;;13.13;54.79
45253;BME280;63171;50.520;30.486;2023-03-24T04:41:07;99573.13;;;12.95;54.96
45253;BME280;63171;50.520;30.486;2023-03-24T04:42:02;99571.47;;;13.05;54.89
45253;BME280;63171;50.520;30.486;2023-03-24T04:42:55;99577.09;;;13.00;54.95
45253;BME280;63171;50.520;30.486;2023-03-24T04:43:53;99578.03;;;12.99;54.85
45253;BME280;63171;50.520;30.486;2023-03-24T04:44:46;99583.63;;;12.95;55.01
45253;BME280;63171;50.520;30.486;2023-03-24T04:46:02;99580.31;;;13.04;54.96
45253;BME280;63171;50.520;30.486;2023-03-24T04:47:02;99585.19;;;13.09;54.87
45253;BME280;63171;50.520;30.486;2023-03-24T04:47:56;99578.25;;;13.08;54.80
45253;BME280;63171;50.520;30.486;2023-03-24T04:49:10;99581.56;;;13.22;54.97
45253;BME280;63171;50.520;30.486;2023-03-24T04:50:05;99582.13;;;13.15;54.82
45253;BME280;63171;50.520;30.486;2023-03-24T04:50:58;99583.44;;;13.20;54.98
45253;BME280;63171;50.520;30.486;2023-03-24T04:51:58;99585.13;;;13.21;54.98
45253;BME280;63171;50.520;30.486;2023-03-24T04:52:50;99586.09;;;13.31;55.14
45253;BME280;63171;50.520;30.486;2023-03-24T04:53:41;99586.47;;;13.38;55.17
45253;BME280;63171;50.520;30.486;2023-03-24T04:54:31;99585.13;;;13.44;54.94
45253;BME280;63171;50.520;30.486;2023-03-24T04:55:36;99585.38;;;13.41;54.92
45253;BME280;63171;50.520;30.486;2023-03-24T04:56:38;99597.69;;;13.29;54.68
45253;BME280;63171;50.520;30.486;2023-03-24T04:57:33;99600.50;;;13.15;54.63
45253;BME280;63171;50.520;30.486;2023-03-24T04:58:27;99591.97;;;13.24;54.77
45253;BME280;63171;50.520;30.486;2023-03-24T04:59:19;99596.84;;;13.28;54.92
45253;BME280;63171;50.520;30.486;2023-03-24T05:00:11;99581.31;;;13.37;54.83
45253;BME280;63171;50.520;30.486;2023-03-24T05:01:04;99583.00;;;13.26;54.66
45253;BME280;63171;50.520;30.486;2023-03-24T05:01:54;99581.53;;;13.34;54.80
45253;BME280;63171;50.520;30.486;2023-03-24T05:02:53;99584.66;;;13.27;54.87
45253;BME280;63171;50.520;30.486;2023-03-24T05:03:48;99579.34;;;13.16;54.67
45253;BME280;63171;50.520;30.486;2023-03-24T05:04:39;99582.13;;;13.15;54.65
45253;BME280;63171;50.520;30.486;2023-03-24T05:05:52;99582.81;;;13.17;54.96
45253;BME280;63171;50.520;30.486;2023-03-24T05:06:42;99582.81;;;13.06;54.62
45253;BME280;63171;50.520;30.486;2023-03-24T05:07:32;99583.53;;;13.08;54.82